createdAt,value
2022-12-05T00:01:31.265Z,4.58
2022-12-05T00:04:01.087Z,4.65
2022-12-05T00:06:30.134Z,4.68
2022-12-05T00:08:58.113Z,4.75
2022-12-05T00:11:29.435Z,4.80
2022-12-05T00:13:59.209Z,4.72
2022-12-05T00:16:30.795Z,4.80
2022-12-05T00:19:00.849Z,4.85
2022-12-05T00:21:32.822Z,4.84
2022-12-05T00:24:01.824Z,4.88
2022-12-05T00:26:28.818Z,4.92
2022-12-05T00:28:58.068Z,4.96
2022-12-05T00:31:27.016Z,5.01
2022-12-05T00:33:55.024Z,5.01
2022-12-05T00:36:25.953Z,5.00
2022-12-05T00:38:54.582Z,4.99
2022-12-05T00:41:25.547Z,5.02
2022-12-05T00:43:53.537Z,4.95
2022-12-05T00:46:24.172Z,4.96
2022-12-05T00:48:54.507Z,5.00
2022-12-05T00:51:28.786Z,4.99
2022-12-05T00:53:59.821Z,4.95
2022-12-05T00:56:28.393Z,4.93
2022-12-05T00:58:57.429Z,4.92
2022-12-05T01:01:44.942Z,4.93
2022-12-05T01:04:16.747Z,5.01
2022-12-05T01:06:44.447Z,4.97
2022-12-05T01:09:16.504Z,4.98
2022-12-05T01:11:44.261Z,5.00
2022-12-05T01:14:13.378Z,5.00
2022-12-05T01:16:43.139Z,4.99
2022-12-05T01:19:18.242Z,4.99
2022-12-05T01:21:45.119Z,5.03
2022-12-05T01:24:12.559Z,5.04
2022-12-05T01:26:41.662Z,5.02
2022-12-05T01:29:08.915Z,5.03
2022-12-05T01:31:37.634Z,5.01
2022-12-05T01:34:10.574Z,5.04
2022-12-05T01:36:39.261Z,5.07
2022-12-05T01:39:08.512Z,5.08
2022-12-05T01:41:41.239Z,5.10
2022-12-05T01:44:11.163Z,5.15
2022-12-05T01:46:50.883Z,5.10
2022-12-05T01:49:27.117Z,5.04
2022-12-05T01:51:59.004Z,5.04
2022-12-05T01:54:26.039Z,5.06
2022-12-05T01:57:00.044Z,5.05
2022-12-05T01:59:33.180Z,5.04
2022-12-05T02:02:00.418Z,5.05
2022-12-05T02:04:27.719Z,5.05
2022-12-05T02:06:54.966Z,5.04
2022-12-05T02:09:22.985Z,5.07
2022-12-05T02:12:02.156Z,5.06
2022-12-05T02:15:23.199Z,5.07
2022-12-05T02:18:11.082Z,5.06
2022-12-05T02:20:59.024Z,5.06
2022-12-05T02:24:09.002Z,5.04
2022-12-05T02:26:51.654Z,5.08
2022-12-05T02:29:46.218Z,5.06
2022-12-05T02:32:29.429Z,5.04
2022-12-05T02:35:11.378Z,5.07
2022-12-05T02:37:48.752Z,5.05
2022-12-05T02:40:40.589Z,5.05
2022-12-05T02:43:13.921Z,4.89
2022-12-05T02:45:44.198Z,4.76
2022-12-05T02:48:14.347Z,4.81
2022-12-05T02:50:43.300Z,4.78
2022-12-05T02:53:14.436Z,4.81
2022-12-05T02:55:42.488Z,4.83
2022-12-05T02:58:20.664Z,4.82
2022-12-05T03:00:51.050Z,4.88
2022-12-05T03:03:21.458Z,4.87
2022-12-05T03:06:10.529Z,4.91
2022-12-05T03:08:49.219Z,4.91
2022-12-05T03:11:16.341Z,4.92
2022-12-05T03:13:50.964Z,4.95
2022-12-05T03:16:33.937Z,4.96
2022-12-05T03:19:18.240Z,4.99
2022-12-05T03:22:03.501Z,5.04
2022-12-05T03:24:31.894Z,5.03
2022-12-05T03:27:26.689Z,5.02
2022-12-05T03:30:02.337Z,5.04
2022-12-05T03:33:03.660Z,5.01
2022-12-05T03:36:11.967Z,5.06
2022-12-05T03:38:54.714Z,4.96
2022-12-05T03:41:49.331Z,4.98
2022-12-05T03:44:56.378Z,4.81
2022-12-05T03:47:42.347Z,4.88
2022-12-05T03:50:24.376Z,4.98
2022-12-05T03:53:21.454Z,5.00
2022-12-05T03:55:57.925Z,5.02
2022-12-05T03:58:38.800Z,4.99
2022-12-05T04:01:08.678Z,5.05
2022-12-05T04:03:51.922Z,5.04
2022-12-05T04:06:28.707Z,5.04
2022-12-05T04:09:05.037Z,5.01
2022-12-05T04:11:37.803Z,4.95
2022-12-05T04:14:14.160Z,4.88
2022-12-05T04:17:05.498Z,5.02
2022-12-05T04:20:06.954Z,4.88
2022-12-05T04:22:35.101Z,4.78
2022-12-05T04:25:24.939Z,4.83
2022-12-05T04:28:25.132Z,4.87
2022-12-05T04:31:40.104Z,4.92
2022-12-05T04:34:10.162Z,4.97
2022-12-05T04:37:02.887Z,4.92
2022-12-05T04:39:46.145Z,4.93
2022-12-05T04:42:19.142Z,4.99
2022-12-05T04:45:09.145Z,5.05
2022-12-05T04:47:42.512Z,5.09
2022-12-05T04:50:12.285Z,5.08
2022-12-05T04:52:40.946Z,5.14
2022-12-05T04:55:15.326Z,5.08
2022-12-05T04:58:08.096Z,5.12
2022-12-05T05:01:05.672Z,5.18
2022-12-05T05:04:10.505Z,5.09
2022-12-05T05:06:42.415Z,5.05
2022-12-05T05:09:10.636Z,4.99
2022-12-05T05:11:38.381Z,4.96
2022-12-05T05:14:05.664Z,4.90
2022-12-05T05:16:37.772Z,4.96
2022-12-05T05:19:06.467Z,4.95
2022-12-05T05:21:39.456Z,5.01
2022-12-05T05:24:09.693Z,5.08
2022-12-05T05:26:40.991Z,5.07
2022-12-05T05:29:09.471Z,5.14
2022-12-05T05:31:37.662Z,5.16
2022-12-05T05:34:09.463Z,5.09
2022-12-05T05:36:37.620Z,5.07
2022-12-05T05:39:06.901Z,5.06
2022-12-05T05:41:36.320Z,5.07
2022-12-05T05:44:04.601Z,5.08
2022-12-05T05:46:34.971Z,5.07
2022-12-05T05:49:02.282Z,5.09
2022-12-05T05:51:30.213Z,5.12
2022-12-05T05:53:58.909Z,5.07
2022-12-05T05:56:25.887Z,5.02
2022-12-05T05:59:03.070Z,5.08
2022-12-05T06:01:30.972Z,4.98
2022-12-05T06:03:58.793Z,4.91
2022-12-05T06:06:26.649Z,4.96
2022-12-05T06:08:54.837Z,4.77
2022-12-05T06:11:27.388Z,4.90
2022-12-05T06:14:02.823Z,4.97
2022-12-05T06:16:31.680Z,4.97
2022-12-05T06:18:59.264Z,4.98
2022-12-05T06:21:27.068Z,5.01
2022-12-05T06:23:54.813Z,5.11
2022-12-05T06:26:23.073Z,5.13
2022-12-05T06:28:50.180Z,5.15
2022-12-05T06:31:21.939Z,5.15
2022-12-05T06:33:48.873Z,5.19
2022-12-05T06:36:19.406Z,5.24
2022-12-05T06:38:46.391Z,5.28
2022-12-05T06:41:19.765Z,5.23
2022-12-05T06:43:47.512Z,5.18
2022-12-05T06:46:15.941Z,5.19
2022-12-05T06:48:42.952Z,5.25
2022-12-05T06:51:12.452Z,5.27
2022-12-05T06:53:39.751Z,5.24
2022-12-05T06:56:13.944Z,5.26
2022-12-05T06:58:46.776Z,5.36
2022-12-05T07:01:41.120Z,5.26
2022-12-05T07:04:23.867Z,5.12
2022-12-05T07:06:52.887Z,5.11
2022-12-05T07:09:44.045Z,5.09
2022-12-05T07:12:12.093Z,5.09
2022-12-05T07:14:47.723Z,5.04
2022-12-05T07:17:15.216Z,4.94
2022-12-05T07:19:42.015Z,4.83
2022-12-05T07:22:15.189Z,4.93
2022-12-05T07:24:43.175Z,4.94
2022-12-05T07:27:09.996Z,4.97
2022-12-05T07:29:36.824Z,4.84
2022-12-05T07:32:03.979Z,4.91
2022-12-05T07:34:30.936Z,4.98
2022-12-05T07:36:57.786Z,4.78
2022-12-05T07:39:24.600Z,4.94
2022-12-05T07:41:51.452Z,4.85
2022-12-05T07:44:18.371Z,4.85
2022-12-05T07:46:45.200Z,4.89
2022-12-05T07:49:12.102Z,4.94
2022-12-05T07:51:39.027Z,4.85
2022-12-05T07:54:06.783Z,4.98
2022-12-05T07:56:33.951Z,4.99
2022-12-05T07:59:01.040Z,5.01
2022-12-05T08:01:29.851Z,5.04
2022-12-05T08:04:00.186Z,5.01
2022-12-05T08:06:30.586Z,5.11
2022-12-05T08:08:58.123Z,5.16
2022-12-05T08:11:30.120Z,5.23
2022-12-05T08:13:58.445Z,5.16
2022-12-05T08:16:31.029Z,5.29
2022-12-05T08:19:02.276Z,5.36
2022-12-05T08:21:29.753Z,5.23
2022-12-05T08:23:57.161Z,5.14
2022-12-05T08:26:28.232Z,5.10
2022-12-05T08:28:59.292Z,5.19
2022-12-05T08:31:29.127Z,5.33
2022-12-05T08:34:00.295Z,5.01
2022-12-05T08:36:31.553Z,5.17
2022-12-05T08:39:02.514Z,5.23
2022-12-05T08:41:30.240Z,5.23
2022-12-05T08:44:02.976Z,5.15
2022-12-05T08:46:32.151Z,5.15
2022-12-05T08:48:59.180Z,5.35
2022-12-05T08:51:26.178Z,5.31
2022-12-05T08:53:53.498Z,5.30
2022-12-05T08:56:26.601Z,5.06
2022-12-05T08:58:58.490Z,5.24
2022-12-05T09:01:33.336Z,5.37
2022-12-05T09:04:02.342Z,5.45
2022-12-05T09:06:29.940Z,5.17
2022-12-05T09:09:00.074Z,5.20
2022-12-05T09:11:30.467Z,5.32
2022-12-05T09:13:59.401Z,5.20
2022-12-05T09:16:37.478Z,5.41
2022-12-05T09:19:08.564Z,5.28
2022-12-05T09:21:35.467Z,5.27
2022-12-05T09:24:02.341Z,5.45
2022-12-05T09:26:30.302Z,5.55
2022-12-05T09:28:57.669Z,5.56
2022-12-05T09:31:27.249Z,5.64
2022-12-05T09:33:55.006Z,5.67
2022-12-05T09:36:26.281Z,5.51
2022-12-05T09:38:54.536Z,5.59
2022-12-05T09:41:52.014Z,5.50
2022-12-05T09:45:04.558Z,5.47
2022-12-05T09:48:02.533Z,5.57
2022-12-05T09:50:48.458Z,5.66
2022-12-05T09:53:32.729Z,5.74
2022-12-05T09:56:14.497Z,5.67
2022-12-05T09:58:56.161Z,5.65
2022-12-05T10:01:38.846Z,5.54
2022-12-05T10:04:49.414Z,5.56
2022-12-05T10:07:44.396Z,5.70
2022-12-05T10:10:34.643Z,5.65
2022-12-05T10:13:38.117Z,5.52
2022-12-05T10:16:33.727Z,5.60
2022-12-05T10:19:07.213Z,5.56
2022-12-05T10:22:12.046Z,5.79
2022-12-05T10:24:52.758Z,5.79
2022-12-05T10:27:27.720Z,6.01
2022-12-05T10:30:06.502Z,5.88
2022-12-05T10:33:05.010Z,5.90
2022-12-05T10:35:39.573Z,5.98
2022-12-05T10:38:24.910Z,5.93
2022-12-05T10:40:58.112Z,5.94
2022-12-05T10:43:31.716Z,5.92
2022-12-05T10:46:00.260Z,5.69
2022-12-05T10:48:28.132Z,5.89
2022-12-05T10:50:57.674Z,5.72
2022-12-05T10:53:50.071Z,5.80
2022-12-05T10:56:41.683Z,5.88
2022-12-05T10:59:13.229Z,5.85
2022-12-05T11:01:53.007Z,5.90
2022-12-05T11:04:44.462Z,6.07
2022-12-05T11:07:27.177Z,6.12
2022-12-05T11:09:54.712Z,6.17
2022-12-05T11:12:26.917Z,6.14
2022-12-05T11:15:21.922Z,6.06
2022-12-05T11:17:50.481Z,6.18
2022-12-05T11:20:20.299Z,6.36
2022-12-05T11:22:50.694Z,6.36
2022-12-05T11:25:32.151Z,6.22
2022-12-05T11:28:21.370Z,6.25
2022-12-05T11:31:12.291Z,6.26
2022-12-05T11:33:40.050Z,6.14
2022-12-05T11:36:22.144Z,6.29
2022-12-05T11:38:49.458Z,6.15
2022-12-05T11:41:45.551Z,6.09
2022-12-05T11:44:49.797Z,6.01
2022-12-05T11:48:00.169Z,6.10
2022-12-05T11:51:00.229Z,6.20
2022-12-05T11:53:42.988Z,6.28
2022-12-05T11:56:36.591Z,6.19
2022-12-05T11:59:22.574Z,6.04
2022-12-05T12:02:26.457Z,6.12
2022-12-05T12:05:18.598Z,6.25
2022-12-05T12:08:15.971Z,6.31
2022-12-05T12:11:01.261Z,6.29
2022-12-05T12:14:07.282Z,6.26
2022-12-05T12:17:33.989Z,6.32
2022-12-05T12:20:35.437Z,6.37
2022-12-05T12:23:35.647Z,6.50
2022-12-05T12:26:33.231Z,6.35
2022-12-05T12:29:33.653Z,6.47
2022-12-05T12:32:21.525Z,6.35
2022-12-05T12:35:01.308Z,6.43
2022-12-05T12:37:53.822Z,6.52
2022-12-05T12:40:38.333Z,6.70
2022-12-05T12:43:56.560Z,6.64
2022-12-05T12:46:41.202Z,6.66
2022-12-05T12:49:45.205Z,6.84
2022-12-05T12:52:24.507Z,6.87
2022-12-05T12:55:04.552Z,6.93
2022-12-05T12:58:11.198Z,7.09
2022-12-05T13:01:01.586Z,7.18
2022-12-05T13:03:41.868Z,7.36
2022-12-05T13:06:38.009Z,7.33
2022-12-05T13:09:22.140Z,7.51
2022-12-05T13:11:50.864Z,7.65
2022-12-05T13:14:23.430Z,7.74
2022-12-05T13:16:54.274Z,7.88
2022-12-05T13:19:43.374Z,7.95
2022-12-05T13:22:11.816Z,7.64
2022-12-05T13:24:39.190Z,7.84
2022-12-05T13:27:13.782Z,7.67
2022-12-05T13:30:00.005Z,7.74
2022-12-05T13:32:40.764Z,7.62
2022-12-05T13:35:07.484Z,7.59
2022-12-05T13:37:53.893Z,7.58
2022-12-05T13:40:45.736Z,7.59
2022-12-05T13:43:23.776Z,7.54
2022-12-05T13:46:07.346Z,7.51
2022-12-05T13:48:38.729Z,7.40
2022-12-05T13:51:46.598Z,7.43
2022-12-05T13:54:23.005Z,7.46
2022-12-05T13:56:54.593Z,7.35
2022-12-05T14:00:01.816Z,7.10
2022-12-05T14:02:45.471Z,7.19
2022-12-05T14:05:22.218Z,7.17
2022-12-05T14:07:57.477Z,7.25
2022-12-05T14:10:36.806Z,7.39
2022-12-05T14:13:30.178Z,7.27
2022-12-05T14:16:42.048Z,7.34
2022-12-05T14:19:40.899Z,7.37
2022-12-05T14:22:22.480Z,7.47
2022-12-05T14:25:32.798Z,7.41
2022-12-05T14:28:35.743Z,7.51
2022-12-05T14:31:29.294Z,7.38
2022-12-05T14:34:22.272Z,7.33
2022-12-05T14:37:14.853Z,7.22
2022-12-05T14:40:01.001Z,7.33
2022-12-05T14:42:44.134Z,7.26
2022-12-05T14:45:33.421Z,7.34
2022-12-05T14:48:15.427Z,7.21
2022-12-05T14:50:51.837Z,7.28
2022-12-05T14:53:21.461Z,7.39
2022-12-05T14:55:56.502Z,7.35
2022-12-05T14:59:05.454Z,7.33
2022-12-05T15:01:48.745Z,7.33
2022-12-05T15:04:19.835Z,7.19
2022-12-05T15:06:55.954Z,7.12
2022-12-05T15:09:37.961Z,7.15
2022-12-05T15:12:13.396Z,7.13
2022-12-05T15:15:08.135Z,7.09
2022-12-05T15:17:50.647Z,7.12
2022-12-05T15:20:31.465Z,7.07
2022-12-05T15:23:00.116Z,7.09
2022-12-05T15:25:32.291Z,7.05
2022-12-05T15:28:16.733Z,7.07
2022-12-05T15:30:43.648Z,7.10
2022-12-05T15:33:14.008Z,7.08
2022-12-05T15:35:41.594Z,7.05
2022-12-05T15:38:27.284Z,7.06
2022-12-05T15:40:54.708Z,7.03
2022-12-05T15:43:29.635Z,7.05
2022-12-05T15:46:24.495Z,7.00
2022-12-05T15:48:54.341Z,6.92
2022-12-05T15:51:36.671Z,7.04
2022-12-05T15:54:15.558Z,7.02
2022-12-05T15:56:54.041Z,6.93
2022-12-05T15:59:53.931Z,6.87
2022-12-05T16:02:40.777Z,6.85
2022-12-05T16:05:39.776Z,6.76
2022-12-05T16:08:08.387Z,6.74
2022-12-05T16:10:35.978Z,6.75
2022-12-05T16:13:16.071Z,6.73
2022-12-05T16:15:52.576Z,6.76
2022-12-05T16:18:30.161Z,6.74
2022-12-05T16:20:57.829Z,6.68
2022-12-05T16:23:32.576Z,6.70
2022-12-05T16:26:39.066Z,6.63
2022-12-05T16:29:09.379Z,6.70
2022-12-05T16:31:36.577Z,6.62
2022-12-05T16:34:15.084Z,6.65
2022-12-05T16:36:50.683Z,6.66
2022-12-05T16:39:19.797Z,6.70
2022-12-05T16:41:47.501Z,6.74
2022-12-05T16:45:01.692Z,6.79
2022-12-05T16:47:41.106Z,6.77
2022-12-05T16:50:35.985Z,6.80
2022-12-05T16:53:09.877Z,6.74
2022-12-05T16:55:41.745Z,6.79
2022-12-05T16:58:15.595Z,6.82
2022-12-05T17:00:42.749Z,6.81
2022-12-05T17:03:33.309Z,6.73
2022-12-05T17:06:01.021Z,6.75
2022-12-05T17:08:27.927Z,6.69
2022-12-05T17:10:54.909Z,6.76
2022-12-05T17:13:21.924Z,6.85
2022-12-05T17:15:48.926Z,6.75
2022-12-05T17:18:24.154Z,6.69
2022-12-05T17:20:56.073Z,6.61
2022-12-05T17:23:23.082Z,6.55
2022-12-05T17:25:54.001Z,6.61
2022-12-05T17:28:21.561Z,6.57
2022-12-05T17:30:48.525Z,6.42
2022-12-05T17:33:18.322Z,6.34
2022-12-05T17:35:45.637Z,6.55
2022-12-05T17:38:12.686Z,6.30
2022-12-05T17:40:40.111Z,6.46
2022-12-05T17:43:07.218Z,6.46
2022-12-05T17:45:34.109Z,6.37
2022-12-05T17:48:01.194Z,6.39
2022-12-05T17:50:28.143Z,6.36
2022-12-05T17:53:00.476Z,6.41
2022-12-05T17:55:29.998Z,6.26
2022-12-05T17:57:56.997Z,6.29
2022-12-05T18:00:25.061Z,6.42
2022-12-05T18:02:52.642Z,6.34
2022-12-05T18:05:20.091Z,6.36
2022-12-05T18:07:47.521Z,6.47
2022-12-05T18:10:19.199Z,6.47
2022-12-05T18:12:47.747Z,6.52
2022-12-05T18:15:15.568Z,6.40
2022-12-05T18:17:43.681Z,6.26
2022-12-05T18:20:14.335Z,6.42
2022-12-05T18:22:41.724Z,6.26
2022-12-05T18:25:09.732Z,6.37
2022-12-05T18:27:38.254Z,6.28
2022-12-05T18:30:07.318Z,6.28
2022-12-05T18:32:34.253Z,6.35
2022-12-05T18:35:02.147Z,6.35
2022-12-05T18:37:30.160Z,6.39
2022-12-05T18:39:57.262Z,6.48
2022-12-05T18:42:24.145Z,6.51
2022-12-05T18:44:51.042Z,6.60
2022-12-05T18:47:17.952Z,6.65
2022-12-05T18:49:44.776Z,6.34
2022-12-05T18:52:11.684Z,6.42
2022-12-05T18:54:38.489Z,6.56
2022-12-05T18:57:05.571Z,6.57
2022-12-05T18:59:32.501Z,6.58
2022-12-05T19:02:00.428Z,6.48
2022-12-05T19:04:28.950Z,6.48
2022-12-05T19:06:59.162Z,6.42
2022-12-05T19:09:30.271Z,6.40
2022-12-05T19:11:59.422Z,6.46
2022-12-05T19:14:29.473Z,6.46
2022-12-05T19:17:00.232Z,6.39
2022-12-05T19:19:27.985Z,6.38
2022-12-05T19:21:55.215Z,6.20
2022-12-05T19:24:22.076Z,6.06
2022-12-05T19:26:48.980Z,5.99
2022-12-05T19:29:16.897Z,6.13
2022-12-05T19:31:44.380Z,6.27
2022-12-05T19:34:11.843Z,6.28
2022-12-05T19:36:44.981Z,6.39
2022-12-05T19:39:18.878Z,6.52
2022-12-05T19:41:47.469Z,6.56
2022-12-05T19:44:14.966Z,6.36
2022-12-05T19:46:42.086Z,6.39
2022-12-05T19:49:12.692Z,6.39
2022-12-05T19:51:40.296Z,6.39
2022-12-05T19:54:10.851Z,6.30
2022-12-05T19:56:39.633Z,6.37
2022-12-05T19:59:07.093Z,6.39
2022-12-05T20:01:37.460Z,6.38
2022-12-05T20:04:14.775Z,6.45
2022-12-05T20:06:47.198Z,6.59
2022-12-05T20:09:17.625Z,6.58
2022-12-05T20:11:52.659Z,6.68
2022-12-05T20:14:21.905Z,6.51
2022-12-05T20:16:48.891Z,6.53
2022-12-05T20:19:15.909Z,6.48
2022-12-05T20:21:44.450Z,6.39
2022-12-05T20:24:11.985Z,6.45
2022-12-05T20:26:42.941Z,6.43
2022-12-05T20:29:10.559Z,6.23
2022-12-05T20:31:41.479Z,6.07
2022-12-05T20:34:11.552Z,6.29
2022-12-05T20:36:38.449Z,6.38
2022-12-05T20:39:11.054Z,6.34
2022-12-05T20:41:37.922Z,6.30
2022-12-05T20:44:07.482Z,6.19
2022-12-05T20:46:35.383Z,6.30
2022-12-05T20:49:02.623Z,6.32
2022-12-05T20:51:34.568Z,6.32
2022-12-05T20:54:03.810Z,6.39
2022-12-05T20:56:32.961Z,6.40
2022-12-05T20:59:03.172Z,6.30
2022-12-05T21:01:33.003Z,6.24
2022-12-05T21:04:00.946Z,6.37
2022-12-05T21:06:43.682Z,6.35
2022-12-05T21:09:16.080Z,6.38
2022-12-05T21:11:43.382Z,6.32
2022-12-05T21:14:10.736Z,6.37
2022-12-05T21:16:37.831Z,6.52
2022-12-05T21:19:04.669Z,6.28
2022-12-05T21:21:34.038Z,6.39
2022-12-05T21:24:03.366Z,6.42
2022-12-05T21:26:32.955Z,6.41
2022-12-05T21:29:01.328Z,6.47
2022-12-05T21:31:32.007Z,6.43
2022-12-05T21:34:02.808Z,6.28
2022-12-05T21:36:32.295Z,6.32
2022-12-05T21:38:59.994Z,6.08
2022-12-05T21:41:27.314Z,6.31
2022-12-05T21:43:55.781Z,6.39
2022-12-05T21:46:25.243Z,6.43
2022-12-05T21:48:52.762Z,6.42
2022-12-05T21:51:23.472Z,6.47
2022-12-05T21:53:51.982Z,6.28
2022-12-05T21:56:23.118Z,6.45
2022-12-05T21:58:50.775Z,6.55
2022-12-05T22:01:25.297Z,6.65
2022-12-05T22:04:01.187Z,6.58
2022-12-05T22:06:33.403Z,6.54
2022-12-05T22:09:00.940Z,6.53
2022-12-05T22:11:27.947Z,6.39
2022-12-05T22:13:54.874Z,6.49
2022-12-05T22:16:25.388Z,6.50
2022-12-05T22:18:56.040Z,6.53
2022-12-05T22:21:22.901Z,6.51
2022-12-05T22:23:50.206Z,6.72
2022-12-05T22:26:20.819Z,6.58
2022-12-05T22:28:50.597Z,6.57
2022-12-05T22:31:18.230Z,6.58
2022-12-05T22:33:45.623Z,6.58
2022-12-05T22:36:16.775Z,6.60
2022-12-05T22:38:46.910Z,6.35
2022-12-05T22:41:23.138Z,6.39
2022-12-05T22:43:54.989Z,6.48
2022-12-05T22:46:21.871Z,6.54
2022-12-05T22:48:50.153Z,6.43
2022-12-05T22:51:19.027Z,6.35
2022-12-05T22:53:46.516Z,6.46
2022-12-05T22:56:16.552Z,6.56
2022-12-05T22:58:45.059Z,6.44
2022-12-05T23:01:18.377Z,6.54
2022-12-05T23:03:48.282Z,6.65
2022-12-05T23:06:18.444Z,6.66
2022-12-05T23:08:49.872Z,6.57
2022-12-05T23:11:18.726Z,6.59
2022-12-05T23:13:46.703Z,6.66
2022-12-05T23:16:22.223Z,6.64
2022-12-05T23:18:51.035Z,6.66
2022-12-05T23:21:25.765Z,6.70
2022-12-05T23:23:56.922Z,6.64
2022-12-05T23:26:28.642Z,6.66
2022-12-05T23:28:55.899Z,6.71
2022-12-05T23:31:23.260Z,6.72
2022-12-05T23:33:51.668Z,6.77
2022-12-05T23:36:19.848Z,6.80
2022-12-05T23:38:47.419Z,6.61
2022-12-05T23:41:20.232Z,6.67
2022-12-05T23:43:48.896Z,6.74
2022-12-05T23:46:18.553Z,6.56
2022-12-05T23:48:45.958Z,6.63
2022-12-05T23:51:22.520Z,6.64
2022-12-05T23:53:55.404Z,6.69
2022-12-05T23:56:26.326Z,6.66
2022-12-05T23:58:54.525Z,6.64
